sensor_id;sensor_type;location;lat;lon;timestamp;P1;durP1;ratioP1;P2;durP2;ratioP2
31238;SDS011;17871;31.584;74.450;2023-04-03T00:01:38;29.80;;;13.93;;
31238;SDS011;17871;31.584;74.450;2023-04-03T00:04:07;28.65;;;15.77;;
31238;SDS011;17871;31.584;74.450;2023-04-03T00:06:36;24.75;;;14.38;;
31238;SDS011;17871;31.584;74.450;2023-04-03T00:09:05;22.48;;;14.45;;
31238;SDS011;17871;31.584;74.450;2023-04-03T00:11:36;21.27;;;14.65;;
31238;SDS011;17871;31.584;74.450;2023-04-03T00:14:05;24.45;;;13.63;;
31238;SDS011;17871;31.584;74.450;2023-04-03T00:16:34;23.75;;;14.85;;
31238;SDS011;17871;31.584;74.450;2023-04-03T00:19:03;21.20;;;14.23;;
31238;SDS011;17871;31.584;74.450;2023-04-03T00:21:33;23.13;;;15.25;;
31238;SDS011;17871;31.584;74.450;2023-04-03T00:24:02;21.38;;;14.30;;
31238;SDS011;17871;31.584;74.450;2023-04-03T00:26:31;23.35;;;14.50;;
31238;SDS011;17871;31.584;74.450;2023-04-03T00:29:00;25.25;;;16.05;;
31238;SDS011;17871;31.584;74.450;2023-04-03T00:31:29;24.38;;;16.15;;
31238;SDS011;17871;31.584;74.450;2023-04-03T00:33:58;27.73;;;16.00;;
31238;SDS011;17871;31.584;74.450;2023-04-03T00:36:27;24.90;;;14.98;;
31238;SDS011;17871;31.584;74.450;2023-04-03T00:38:56;23.95;;;14.40;;
31238;SDS011;17871;31.584;74.450;2023-04-03T00:41:25;23.88;;;15.70;;
31238;SDS011;17871;31.584;74.450;2023-04-03T00:43:54;25.35;;;15.10;;
31238;SDS011;17871;31.584;74.450;2023-04-03T00:46:23;24.33;;;16.08;;
31238;SDS011;17871;31.584;74.450;2023-04-03T00:48:52;31.73;;;17.25;;
31238;SDS011;17871;31.584;74.450;2023-04-03T00:51:24;34.83;;;17.60;;
31238;SDS011;17871;31.584;74.450;2023-04-03T00:54:01;33.28;;;16.92;;
31238;SDS011;17871;31.584;74.450;2023-04-03T00:56:33;29.25;;;18.52;;
31238;SDS011;17871;31.584;74.450;2023-04-03T00:59:06;41.03;;;22.98;;
31238;SDS011;17871;31.584;74.450;2023-04-03T01:01:42;46.78;;;25.15;;
31238;SDS011;17871;31.584;74.450;2023-04-03T01:04:26;52.95;;;25.80;;
31238;SDS011;17871;31.584;74.450;2023-04-03T01:07:04;55.75;;;29.48;;
31238;SDS011;17871;31.584;74.450;2023-04-03T01:09:38;55.40;;;31.80;;
31238;SDS011;17871;31.584;74.450;2023-04-03T01:12:21;65.40;;;40.22;;
31238;SDS011;17871;31.584;74.450;2023-04-03T01:14:53;78.82;;;43.22;;
31238;SDS011;17871;31.584;74.450;2023-04-03T01:17:35;75.15;;;42.78;;
31238;SDS011;17871;31.584;74.450;2023-04-03T01:28:09;77.55;;;44.00;;
31238;SDS011;17871;31.584;74.450;2023-04-03T01:30:46;81.72;;;43.88;;
31238;SDS011;17871;31.584;74.450;2023-04-03T01:33:19;92.53;;;46.20;;
31238;SDS011;17871;31.584;74.450;2023-04-03T01:35:48;93.00;;;46.38;;
31238;SDS011;17871;31.584;74.450;2023-04-03T01:38:18;85.95;;;44.42;;
31238;SDS011;17871;31.584;74.450;2023-04-03T01:40:47;101.53;;;49.03;;
31238;SDS011;17871;31.584;74.450;2023-04-03T01:43:16;85.43;;;47.75;;
31238;SDS011;17871;31.584;74.450;2023-04-03T01:45:45;88.40;;;43.28;;
31238;SDS011;17871;31.584;74.450;2023-04-03T01:48:16;80.82;;;44.08;;
31238;SDS011;17871;31.584;74.450;2023-04-03T01:50:45;85.82;;;43.53;;
31238;SDS011;17871;31.584;74.450;2023-04-03T01:53:14;84.68;;;45.22;;
31238;SDS011;17871;31.584;74.450;2023-04-03T01:55:43;86.00;;;42.78;;
31238;SDS011;17871;31.584;74.450;2023-04-03T01:58:12;90.18;;;44.47;;
31238;SDS011;17871;31.584;74.450;2023-04-03T02:00:41;84.13;;;42.60;;
31238;SDS011;17871;31.584;74.450;2023-04-03T02:03:10;76.22;;;41.00;;
31238;SDS011;17871;31.584;74.450;2023-04-03T02:05:39;80.55;;;42.65;;
31238;SDS011;17871;31.584;74.450;2023-04-03T02:08:09;76.93;;;42.00;;
31238;SDS011;17871;31.584;74.450;2023-04-03T02:10:39;78.25;;;39.63;;
31238;SDS011;17871;31.584;74.450;2023-04-03T02:13:08;76.55;;;39.53;;
31238;SDS011;17871;31.584;74.450;2023-04-03T02:15:40;66.35;;;37.05;;
31238;SDS011;17871;31.584;74.450;2023-04-03T02:20:38;60.17;;;33.88;;
31238;SDS011;17871;31.584;74.450;2023-04-03T02:23:07;76.65;;;47.10;;
31238;SDS011;17871;31.584;74.450;2023-04-03T02:25:36;95.05;;;62.58;;
31238;SDS011;17871;31.584;74.450;2023-04-03T02:28:05;65.72;;;40.97;;
31238;SDS011;17871;31.584;74.450;2023-04-03T02:30:34;51.95;;;31.38;;
31238;SDS011;17871;31.584;74.450;2023-04-03T02:33:04;44.85;;;27.27;;
31238;SDS011;17871;31.584;74.450;2023-04-03T02:35:33;43.25;;;25.45;;
31238;SDS011;17871;31.584;74.450;2023-04-03T02:38:02;53.00;;;30.02;;
31238;SDS011;17871;31.584;74.450;2023-04-03T02:40:31;51.08;;;32.25;;
31238;SDS011;17871;31.584;74.450;2023-04-03T02:43:00;78.63;;;46.17;;
31238;SDS011;17871;31.584;74.450;2023-04-03T02:45:30;73.43;;;43.42;;
31238;SDS011;17871;31.584;74.450;2023-04-03T02:48:00;62.97;;;36.75;;
31238;SDS011;17871;31.584;74.450;2023-04-03T02:50:29;55.47;;;30.77;;
31238;SDS011;17871;31.584;74.450;2023-04-03T02:52:58;55.00;;;30.17;;
31238;SDS011;17871;31.584;74.450;2023-04-03T02:55:26;49.88;;;31.55;;
31238;SDS011;17871;31.584;74.450;2023-04-03T02:57:56;44.97;;;27.65;;
31238;SDS011;17871;31.584;74.450;2023-04-03T03:00:24;43.13;;;24.73;;
31238;SDS011;17871;31.584;74.450;2023-04-03T03:02:54;35.30;;;22.67;;
31238;SDS011;17871;31.584;74.450;2023-04-03T03:05:23;42.72;;;23.90;;
31238;SDS011;17871;31.584;74.450;2023-04-03T03:07:52;35.33;;;22.58;;
31238;SDS011;17871;31.584;74.450;2023-04-03T03:10:22;37.42;;;21.88;;
31238;SDS011;17871;31.584;74.450;2023-04-03T03:12:52;36.17;;;21.73;;
31238;SDS011;17871;31.584;74.450;2023-04-03T03:15:20;33.22;;;21.35;;
31238;SDS011;17871;31.584;74.450;2023-04-03T03:17:49;35.38;;;21.58;;
31238;SDS011;17871;31.584;74.450;2023-04-03T03:20:19;34.47;;;21.73;;
31238;SDS011;17871;31.584;74.450;2023-04-03T03:22:49;38.97;;;20.92;;
31238;SDS011;17871;31.584;74.450;2023-04-03T03:25:18;36.17;;;21.42;;
31238;SDS011;17871;31.584;74.450;2023-04-03T03:27:47;32.40;;;21.42;;
31238;SDS011;17871;31.584;74.450;2023-04-03T03:30:16;35.17;;;22.08;;
31238;SDS011;17871;31.584;74.450;2023-04-03T03:32:45;38.70;;;23.13;;
31238;SDS011;17871;31.584;74.450;2023-04-03T03:35:14;41.20;;;22.63;;
31238;SDS011;17871;31.584;74.450;2023-04-03T03:37:43;34.95;;;22.08;;
31238;SDS011;17871;31.584;74.450;2023-04-03T03:40:13;39.00;;;22.35;;
31238;SDS011;17871;31.584;74.450;2023-04-03T03:42:44;37.00;;;22.45;;
31238;SDS011;17871;31.584;74.450;2023-04-03T03:45:13;39.97;;;23.08;;
31238;SDS011;17871;31.584;74.450;2023-04-03T03:47:42;36.45;;;23.10;;
31238;SDS011;17871;31.584;74.450;2023-04-03T03:50:12;48.75;;;25.50;;
31238;SDS011;17871;31.584;74.450;2023-04-03T03:52:41;46.03;;;25.33;;
31238;SDS011;17871;31.584;74.450;2023-04-03T03:55:11;45.70;;;26.33;;
31238;SDS011;17871;31.584;74.450;2023-04-03T03:57:40;47.25;;;27.38;;
31238;SDS011;17871;31.584;74.450;2023-04-03T04:00:09;51.80;;;27.60;;
31238;SDS011;17871;31.584;74.450;2023-04-03T04:02:47;51.70;;;27.70;;
31238;SDS011;17871;31.584;74.450;2023-04-03T04:05:19;50.55;;;27.13;;
31238;SDS011;17871;31.584;74.450;2023-04-03T04:07:48;52.97;;;27.48;;
31238;SDS011;17871;31.584;74.450;2023-04-03T04:10:17;48.42;;;28.15;;
31238;SDS011;17871;31.584;74.450;2023-04-03T04:12:46;53.25;;;30.85;;
31238;SDS011;17871;31.584;74.450;2023-04-03T04:15:20;49.10;;;30.13;;
31238;SDS011;17871;31.584;74.450;2023-04-03T04:17:50;51.00;;;31.60;;
31238;SDS011;17871;31.584;74.450;2023-04-03T04:20:19;50.25;;;30.05;;
31238;SDS011;17871;31.584;74.450;2023-04-03T04:22:48;48.67;;;28.40;;
31238;SDS011;17871;31.584;74.450;2023-04-03T04:25:19;47.78;;;28.98;;
31238;SDS011;17871;31.584;74.450;2023-04-03T04:27:48;69.95;;;33.53;;
31238;SDS011;17871;31.584;74.450;2023-04-03T04:30:17;72.85;;;39.63;;
31238;SDS011;17871;31.584;74.450;2023-04-03T04:32:48;73.82;;;41.75;;
31238;SDS011;17871;31.584;74.450;2023-04-03T04:35:17;80.45;;;41.42;;
31238;SDS011;17871;31.584;74.450;2023-04-03T04:37:49;80.50;;;42.30;;
31238;SDS011;17871;31.584;74.450;2023-04-03T04:40:19;77.22;;;38.90;;
31238;SDS011;17871;31.584;74.450;2023-04-03T04:42:49;71.70;;;37.97;;
31238;SDS011;17871;31.584;74.450;2023-04-03T04:45:18;63.15;;;36.67;;
31238;SDS011;17871;31.584;74.450;2023-04-03T04:47:47;69.32;;;36.72;;
31238;SDS011;17871;31.584;74.450;2023-04-03T04:50:18;90.65;;;44.97;;
31238;SDS011;17871;31.584;74.450;2023-04-03T04:52:47;109.63;;;50.60;;
31238;SDS011;17871;31.584;74.450;2023-04-03T04:55:17;108.38;;;51.15;;
31238;SDS011;17871;31.584;74.450;2023-04-03T04:57:46;113.22;;;55.70;;
31238;SDS011;17871;31.584;74.450;2023-04-03T05:00:15;126.50;;;60.92;;
31238;SDS011;17871;31.584;74.450;2023-04-03T05:02:46;119.93;;;59.83;;
31238;SDS011;17871;31.584;74.450;2023-04-03T05:05:17;92.00;;;48.13;;
31238;SDS011;17871;31.584;74.450;2023-04-03T05:07:46;96.15;;;49.35;;
31238;SDS011;17871;31.584;74.450;2023-04-03T05:10:16;85.60;;;46.03;;
31238;SDS011;17871;31.584;74.450;2023-04-03T05:12:45;167.50;;;79.18;;
31238;SDS011;17871;31.584;74.450;2023-04-03T05:15:15;194.35;;;100.10;;
31238;SDS011;17871;31.584;74.450;2023-04-03T05:17:44;200.80;;;93.38;;
31238;SDS011;17871;31.584;74.450;2023-04-03T05:20:14;153.43;;;76.10;;
31238;SDS011;17871;31.584;74.450;2023-04-03T05:22:45;123.93;;;65.55;;
31238;SDS011;17871;31.584;74.450;2023-04-03T05:25:15;96.55;;;52.33;;
31238;SDS011;17871;31.584;74.450;2023-04-03T05:27:44;93.28;;;49.60;;
31238;SDS011;17871;31.584;74.450;2023-04-03T05:30:13;101.03;;;53.05;;
31238;SDS011;17871;31.584;74.450;2023-04-03T05:32:43;96.15;;;54.63;;
31238;SDS011;17871;31.584;74.450;2023-04-03T05:35:21;133.60;;;70.93;;
31238;SDS011;17871;31.584;74.450;2023-04-03T05:37:55;136.85;;;75.07;;
31238;SDS011;17871;31.584;74.450;2023-04-03T05:40:24;106.28;;;58.40;;
31238;SDS011;17871;31.584;74.450;2023-04-03T05:46:55;86.05;;;45.00;;
31238;SDS011;17871;31.584;74.450;2023-04-03T05:49:26;90.82;;;45.53;;
31238;SDS011;17871;31.584;74.450;2023-04-03T05:51:56;79.47;;;46.22;;
31238;SDS011;17871;31.584;74.450;2023-04-03T05:54:29;91.88;;;45.28;;
31238;SDS011;17871;31.584;74.450;2023-04-03T05:57:07;78.28;;;45.75;;
31238;SDS011;17871;31.584;74.450;2023-04-03T05:59:37;85.93;;;46.45;;
31238;SDS011;17871;31.584;74.450;2023-04-03T06:02:08;77.97;;;44.28;;
31238;SDS011;17871;31.584;74.450;2023-04-03T06:04:40;74.78;;;45.10;;
31238;SDS011;17871;31.584;74.450;2023-04-03T06:07:17;73.40;;;42.58;;
31238;SDS011;17871;31.584;74.450;2023-04-03T06:09:50;62.22;;;39.30;;
31238;SDS011;17871;31.584;74.450;2023-04-03T06:12:20;60.60;;;40.60;;
31238;SDS011;17871;31.584;74.450;2023-04-03T06:14:50;70.57;;;43.67;;
31238;SDS011;17871;31.584;74.450;2023-04-03T06:17:21;81.72;;;45.95;;
31238;SDS011;17871;31.584;74.450;2023-04-03T06:19:52;80.88;;;48.92;;
31238;SDS011;17871;31.584;74.450;2023-04-03T06:25:47;84.43;;;48.55;;
31238;SDS011;17871;31.584;74.450;2023-04-03T06:35:25;63.28;;;37.53;;
31238;SDS011;17871;31.584;74.450;2023-04-03T06:37:57;58.70;;;34.38;;
31238;SDS011;17871;31.584;74.450;2023-04-03T06:40:27;62.67;;;33.38;;
31238;SDS011;17871;31.584;74.450;2023-04-03T06:42:57;53.63;;;28.98;;
31238;SDS011;17871;31.584;74.450;2023-04-03T06:45:27;45.33;;;28.95;;
31238;SDS011;17871;31.584;74.450;2023-04-03T06:47:57;44.72;;;26.80;;
31238;SDS011;17871;31.584;74.450;2023-04-03T06:50:26;42.80;;;26.45;;
31238;SDS011;17871;31.584;74.450;2023-04-03T06:56:10;54.13;;;34.53;;
31238;SDS011;17871;31.584;74.450;2023-04-03T06:58:40;67.75;;;36.92;;
31238;SDS011;17871;31.584;74.450;2023-04-03T07:01:11;57.60;;;37.90;;
31238;SDS011;17871;31.584;74.450;2023-04-03T07:23:19;56.60;;;27.73;;
31238;SDS011;17871;31.584;74.450;2023-04-03T07:25:50;49.58;;;27.27;;
31238;SDS011;17871;31.584;74.450;2023-04-03T07:28:21;50.15;;;27.45;;
31238;SDS011;17871;31.584;74.450;2023-04-03T07:34:32;47.53;;;24.65;;
31238;SDS011;17871;31.584;74.450;2023-04-03T07:37:02;40.25;;;23.90;;
31238;SDS011;17871;31.584;74.450;2023-04-03T07:39:31;43.78;;;24.98;;
31238;SDS011;17871;31.584;74.450;2023-04-03T07:42:01;47.83;;;24.90;;
31238;SDS011;17871;31.584;74.450;2023-04-03T07:44:30;43.90;;;25.73;;
31238;SDS011;17871;31.584;74.450;2023-04-03T07:47:00;49.22;;;27.20;;
31238;SDS011;17871;31.584;74.450;2023-04-03T07:49:29;46.88;;;27.38;;
31238;SDS011;17871;31.584;74.450;2023-04-03T07:52:01;48.60;;;25.80;;
31238;SDS011;17871;31.584;74.450;2023-04-03T07:54:30;51.42;;;26.80;;
31238;SDS011;17871;31.584;74.450;2023-04-03T07:56:59;54.30;;;27.10;;
31238;SDS011;17871;31.584;74.450;2023-04-03T07:59:29;57.30;;;26.88;;
31238;SDS011;17871;31.584;74.450;2023-04-03T08:01:59;50.95;;;25.83;;
31238;SDS011;17871;31.584;74.450;2023-04-03T08:04:45;48.40;;;26.55;;
31238;SDS011;17871;31.584;74.450;2023-04-03T08:07:14;47.47;;;26.35;;
31238;SDS011;17871;31.584;74.450;2023-04-03T08:09:43;42.65;;;24.73;;
31238;SDS011;17871;31.584;74.450;2023-04-03T08:12:12;67.22;;;25.90;;
31238;SDS011;17871;31.584;74.450;2023-04-03T08:14:42;44.00;;;21.50;;
31238;SDS011;17871;31.584;74.450;2023-04-03T08:17:12;39.95;;;20.42;;
31238;SDS011;17871;31.584;74.450;2023-04-03T08:19:41;35.08;;;20.25;;
31238;SDS011;17871;31.584;74.450;2023-04-03T08:22:10;36.00;;;18.98;;
31238;SDS011;17871;31.584;74.450;2023-04-03T08:24:39;35.17;;;18.60;;
31238;SDS011;17871;31.584;74.450;2023-04-03T08:27:24;34.15;;;17.10;;
31238;SDS011;17871;31.584;74.450;2023-04-03T08:29:56;39.53;;;18.90;;
31238;SDS011;17871;31.584;74.450;2023-04-03T08:32:25;32.05;;;20.55;;
31238;SDS011;17871;31.584;74.450;2023-04-03T08:34:55;33.80;;;18.90;;
31238;SDS011;17871;31.584;74.450;2023-04-03T08:37:24;33.65;;;20.55;;
31238;SDS011;17871;31.584;74.450;2023-04-03T08:39:53;40.67;;;21.60;;
31238;SDS011;17871;31.584;74.450;2023-04-03T08:47:55;41.20;;;26.25;;
31238;SDS011;17871;31.584;74.450;2023-04-03T08:50:31;44.20;;;26.27;;
31238;SDS011;17871;31.584;74.450;2023-04-03T08:53:10;45.90;;;27.25;;
31238;SDS011;17871;31.584;74.450;2023-04-03T08:55:47;44.95;;;26.80;;
31238;SDS011;17871;31.584;74.450;2023-04-03T08:58:19;51.15;;;27.73;;
31238;SDS011;17871;31.584;74.450;2023-04-03T09:03:28;45.40;;;29.55;;
31238;SDS011;17871;31.584;74.450;2023-04-03T09:11:25;56.67;;;32.08;;
31238;SDS011;17871;31.584;74.450;2023-04-03T09:16:58;57.17;;;29.42;;
31238;SDS011;17871;31.584;74.450;2023-04-03T09:22:23;63.28;;;30.98;;
31238;SDS011;17871;31.584;74.450;2023-04-03T09:24:57;61.80;;;29.85;;
31238;SDS011;17871;31.584;74.450;2023-04-03T09:27:30;53.67;;;30.17;;
31238;SDS011;17871;31.584;74.450;2023-04-03T09:29:59;53.38;;;30.60;;
31238;SDS011;17871;31.584;74.450;2023-04-03T09:32:29;64.10;;;30.65;;
31238;SDS011;17871;31.584;74.450;2023-04-03T09:35:04;56.53;;;31.65;;
31238;SDS011;17871;31.584;74.450;2023-04-03T09:37:52;54.15;;;28.63;;
31238;SDS011;17871;31.584;74.450;2023-04-03T09:42:58;44.13;;;24.38;;
31238;SDS011;17871;31.584;74.450;2023-04-03T09:45:31;51.35;;;22.70;;
31238;SDS011;17871;31.584;74.450;2023-04-03T09:53:29;34.92;;;20.10;;
31238;SDS011;17871;31.584;74.450;2023-04-03T09:56:09;35.67;;;20.42;;
31238;SDS011;17871;31.584;74.450;2023-04-03T10:01:36;44.03;;;26.70;;
31238;SDS011;17871;31.584;74.450;2023-04-03T10:04:14;42.90;;;25.05;;
31238;SDS011;17871;31.584;74.450;2023-04-03T10:06:47;44.80;;;25.45;;
31238;SDS011;17871;31.584;74.450;2023-04-03T10:09:25;49.55;;;28.35;;
31238;SDS011;17871;31.584;74.450;2023-04-03T10:14:36;47.05;;;28.63;;
31238;SDS011;17871;31.584;74.450;2023-04-03T10:17:14;56.85;;;31.38;;
31238;SDS011;17871;31.584;74.450;2023-04-03T10:19:58;75.13;;;31.92;;
31238;SDS011;17871;31.584;74.450;2023-04-03T10:23:00;64.57;;;37.10;;
31238;SDS011;17871;31.584;74.450;2023-04-03T10:33:47;70.38;;;41.45;;
31238;SDS011;17871;31.584;74.450;2023-04-03T10:38:51;84.90;;;43.78;;
31238;SDS011;17871;31.584;74.450;2023-04-03T10:49:51;76.38;;;45.92;;
31238;SDS011;17871;31.584;74.450;2023-04-03T10:52:47;92.90;;;46.92;;
31238;SDS011;17871;31.584;74.450;2023-04-03T10:55:30;76.57;;;45.03;;
31238;SDS011;17871;31.584;74.450;2023-04-03T10:58:04;76.13;;;45.78;;
31238;SDS011;17871;31.584;74.450;2023-04-03T11:00:47;87.05;;;44.88;;
31238;SDS011;17871;31.584;74.450;2023-04-03T11:03:27;75.07;;;45.88;;
31238;SDS011;17871;31.584;74.450;2023-04-03T11:06:19;74.68;;;46.17;;
31238;SDS011;17871;31.584;74.450;2023-04-03T11:08:57;71.43;;;43.35;;
31238;SDS011;17871;31.584;74.450;2023-04-03T11:11:35;73.60;;;43.58;;
31238;SDS011;17871;31.584;74.450;2023-04-03T11:14:11;76.30;;;43.88;;
31238;SDS011;17871;31.584;74.450;2023-04-03T11:16:48;83.93;;;44.38;;
31238;SDS011;17871;31.584;74.450;2023-04-03T11:19:57;72.28;;;42.90;;
31238;SDS011;17871;31.584;74.450;2023-04-03T11:22:39;75.25;;;46.85;;
31238;SDS011;17871;31.584;74.450;2023-04-03T11:25:23;100.25;;;48.78;;
31238;SDS011;17871;31.584;74.450;2023-04-03T11:27:55;76.05;;;43.65;;
31238;SDS011;17871;31.584;74.450;2023-04-03T11:30:33;73.35;;;41.92;;
31238;SDS011;17871;31.584;74.450;2023-04-03T11:39:23;81.68;;;44.95;;
31238;SDS011;17871;31.584;74.450;2023-04-03T11:41:54;73.70;;;40.57;;
31238;SDS011;17871;31.584;74.450;2023-04-03T11:44:37;74.47;;;41.85;;
31238;SDS011;17871;31.584;74.450;2023-04-03T11:47:07;74.57;;;41.25;;
31238;SDS011;17871;31.584;74.450;2023-04-03T11:49:56;74.72;;;42.45;;
31238;SDS011;17871;31.584;74.450;2023-04-03T12:11:26;87.45;;;45.10;;
31238;SDS011;17871;31.584;74.450;2023-04-03T12:24:24;87.88;;;43.88;;
31238;SDS011;17871;31.584;74.450;2023-04-03T12:30:06;82.00;;;44.35;;
31238;SDS011;17871;31.584;74.450;2023-04-03T12:32:48;72.10;;;41.47;;
31238;SDS011;17871;31.584;74.450;2023-04-03T12:38:26;90.30;;;44.88;;
31238;SDS011;17871;31.584;74.450;2023-04-03T12:43:41;83.28;;;43.50;;
31238;SDS011;17871;31.584;74.450;2023-04-03T12:46:42;86.35;;;44.47;;
31238;SDS011;17871;31.584;74.450;2023-04-03T12:49:24;83.80;;;42.53;;
31238;SDS011;17871;31.584;74.450;2023-04-03T12:51:58;79.82;;;40.95;;
31238;SDS011;17871;31.584;74.450;2023-04-03T13:00:18;86.03;;;39.38;;
31238;SDS011;17871;31.584;74.450;2023-04-03T13:02:49;75.53;;;41.97;;
31238;SDS011;17871;31.584;74.450;2023-04-03T13:05:19;75.53;;;41.03;;
31238;SDS011;17871;31.584;74.450;2023-04-03T13:07:52;74.72;;;41.45;;
31238;SDS011;17871;31.584;74.450;2023-04-03T13:10:31;78.07;;;40.47;;
31238;SDS011;17871;31.584;74.450;2023-04-03T13:13:13;81.20;;;43.60;;
31238;SDS011;17871;31.584;74.450;2023-04-03T13:15:44;73.28;;;41.38;;
31238;SDS011;17871;31.584;74.450;2023-04-03T13:18:33;75.82;;;40.35;;
31238;SDS011;17871;31.584;74.450;2023-04-03T13:23:38;80.75;;;42.65;;
31238;SDS011;17871;31.584;74.450;2023-04-03T13:26:11;73.82;;;41.20;;
31238;SDS011;17871;31.584;74.450;2023-04-03T13:28:44;76.70;;;42.47;;
31238;SDS011;17871;31.584;74.450;2023-04-03T13:31:22;74.93;;;42.63;;
31238;SDS011;17871;31.584;74.450;2023-04-03T13:33:57;80.20;;;44.85;;
31238;SDS011;17871;31.584;74.450;2023-04-03T13:36:35;93.35;;;45.15;;
31238;SDS011;17871;31.584;74.450;2023-04-03T13:41:48;87.35;;;45.45;;
31238;SDS011;17871;31.584;74.450;2023-04-03T13:46:56;89.13;;;46.38;;
31238;SDS011;17871;31.584;74.450;2023-04-03T13:49:44;80.55;;;45.75;;
31238;SDS011;17871;31.584;74.450;2023-04-03T13:52:31;76.38;;;42.53;;
31238;SDS011;17871;31.584;74.450;2023-04-03T13:55:16;88.68;;;45.10;;
31238;SDS011;17871;31.584;74.450;2023-04-03T13:57:59;80.05;;;44.35;;
31238;SDS011;17871;31.584;74.450;2023-04-03T14:00:51;84.88;;;44.30;;
31238;SDS011;17871;31.584;74.450;2023-04-03T14:03:31;85.65;;;42.90;;
31238;SDS011;17871;31.584;74.450;2023-04-03T14:06:06;78.00;;;41.10;;
31238;SDS011;17871;31.584;74.450;2023-04-03T14:11:29;82.60;;;42.40;;
31238;SDS011;17871;31.584;74.450;2023-04-03T14:14:01;77.07;;;41.25;;
31238;SDS011;17871;31.584;74.450;2023-04-03T14:16:37;75.88;;;40.28;;
31238;SDS011;17871;31.584;74.450;2023-04-03T14:19:42;91.70;;;44.42;;
31238;SDS011;17871;31.584;74.450;2023-04-03T14:22:23;89.53;;;43.78;;
31238;SDS011;17871;31.584;74.450;2023-04-03T14:24:58;83.40;;;43.20;;
31238;SDS011;17871;31.584;74.450;2023-04-03T14:27:29;82.18;;;44.25;;
31238;SDS011;17871;31.584;74.450;2023-04-03T14:30:04;87.93;;;44.80;;
31238;SDS011;17871;31.584;74.450;2023-04-03T14:32:37;94.53;;;44.95;;
31238;SDS011;17871;31.584;74.450;2023-04-03T14:35:06;96.22;;;46.15;;
31238;SDS011;17871;31.584;74.450;2023-04-03T14:37:35;87.05;;;42.65;;
31238;SDS011;17871;31.584;74.450;2023-04-03T14:40:06;75.70;;;41.42;;
31238;SDS011;17871;31.584;74.450;2023-04-03T14:42:37;75.45;;;38.17;;
31238;SDS011;17871;31.584;74.450;2023-04-03T14:45:08;71.18;;;36.53;;
31238;SDS011;17871;31.584;74.450;2023-04-03T14:47:42;62.58;;;32.00;;
31238;SDS011;17871;31.584;74.450;2023-04-03T14:50:17;61.45;;;32.13;;
31238;SDS011;17871;31.584;74.450;2023-04-03T14:52:50;62.80;;;32.20;;
31238;SDS011;17871;31.584;74.450;2023-04-03T14:57:51;57.22;;;28.55;;
31238;SDS011;17871;31.584;74.450;2023-04-03T15:00:21;61.05;;;26.98;;
31238;SDS011;17871;31.584;74.450;2023-04-03T15:02:50;64.20;;;30.60;;
31238;SDS011;17871;31.584;74.450;2023-04-03T15:05:20;62.70;;;32.42;;
31238;SDS011;17871;31.584;74.450;2023-04-03T15:10:22;84.78;;;44.08;;
31238;SDS011;17871;31.584;74.450;2023-04-03T15:12:58;80.50;;;43.75;;
31238;SDS011;17871;31.584;74.450;2023-04-03T15:15:28;70.03;;;38.70;;
31238;SDS011;17871;31.584;74.450;2023-04-03T15:17:58;84.40;;;44.80;;
31238;SDS011;17871;31.584;74.450;2023-04-03T15:20:28;101.80;;;52.38;;
31238;SDS011;17871;31.584;74.450;2023-04-03T15:22:59;94.00;;;47.40;;
31238;SDS011;17871;31.584;74.450;2023-04-03T15:25:32;77.10;;;40.95;;
31238;SDS011;17871;31.584;74.450;2023-04-03T15:28:01;314.88;;;158.93;;
31238;SDS011;17871;31.584;74.450;2023-04-03T15:30:30;236.00;;;121.72;;
31238;SDS011;17871;31.584;74.450;2023-04-03T15:32:59;120.95;;;64.97;;
31238;SDS011;17871;31.584;74.450;2023-04-03T15:35:28;53.58;;;32.95;;
31238;SDS011;17871;31.584;74.450;2023-04-03T15:37:57;53.13;;;29.85;;
31238;SDS011;17871;31.584;74.450;2023-04-03T15:40:26;46.83;;;26.05;;
31238;SDS011;17871;31.584;74.450;2023-04-03T15:42:55;46.40;;;25.30;;
31238;SDS011;17871;31.584;74.450;2023-04-03T15:45:24;44.05;;;25.90;;
31238;SDS011;17871;31.584;74.450;2023-04-03T15:47:56;45.40;;;24.63;;
31238;SDS011;17871;31.584;74.450;2023-04-03T15:50:26;70.88;;;38.10;;
31238;SDS011;17871;31.584;74.450;2023-04-03T15:52:55;57.55;;;30.98;;
31238;SDS011;17871;31.584;74.450;2023-04-03T15:55:26;78.90;;;37.95;;
31238;SDS011;17871;31.584;74.450;2023-04-03T15:57:58;56.38;;;28.08;;
31238;SDS011;17871;31.584;74.450;2023-04-03T16:00:27;53.03;;;27.63;;
31238;SDS011;17871;31.584;74.450;2023-04-03T16:03:02;49.92;;;27.15;;
31238;SDS011;17871;31.584;74.450;2023-04-03T16:05:35;54.38;;;28.98;;
31238;SDS011;17871;31.584;74.450;2023-04-03T16:08:06;60.00;;;32.45;;
31238;SDS011;17871;31.584;74.450;2023-04-03T16:10:36;66.60;;;35.22;;
31238;SDS011;17871;31.584;74.450;2023-04-03T16:13:06;76.45;;;37.50;;
31238;SDS011;17871;31.584;74.450;2023-04-03T16:15:35;82.75;;;40.15;;
31238;SDS011;17871;31.584;74.450;2023-04-03T16:18:05;75.13;;;38.33;;
31238;SDS011;17871;31.584;74.450;2023-04-03T16:20:34;93.18;;;45.40;;
31238;SDS011;17871;31.584;74.450;2023-04-03T16:23:04;96.93;;;50.13;;
31238;SDS011;17871;31.584;74.450;2023-04-03T16:25:34;105.97;;;49.17;;
31238;SDS011;17871;31.584;74.450;2023-04-03T16:28:06;91.72;;;45.65;;
31238;SDS011;17871;31.584;74.450;2023-04-03T16:30:35;94.65;;;46.00;;
31238;SDS011;17871;31.584;74.450;2023-04-03T16:33:04;72.65;;;39.25;;
31238;SDS011;17871;31.584;74.450;2023-04-03T16:35:33;80.20;;;39.58;;
31238;SDS011;17871;31.584;74.450;2023-04-03T16:38:03;89.30;;;46.70;;
31238;SDS011;17871;31.584;74.450;2023-04-03T16:40:33;87.75;;;46.60;;
31238;SDS011;17871;31.584;74.450;2023-04-03T16:43:02;91.88;;;46.75;;
31238;SDS011;17871;31.584;74.450;2023-04-03T16:45:31;91.22;;;46.25;;
31238;SDS011;17871;31.584;74.450;2023-04-03T16:48:00;96.00;;;47.50;;
31238;SDS011;17871;31.584;74.450;2023-04-03T16:50:29;103.05;;;48.92;;
31238;SDS011;17871;31.584;74.450;2023-04-03T16:52:58;104.18;;;51.33;;
31238;SDS011;17871;31.584;74.450;2023-04-03T16:55:27;109.65;;;49.67;;
31238;SDS011;17871;31.584;74.450;2023-04-03T16:57:56;107.05;;;52.72;;
31238;SDS011;17871;31.584;74.450;2023-04-03T17:00:25;101.45;;;51.63;;
31238;SDS011;17871;31.584;74.450;2023-04-03T17:02:54;124.60;;;58.60;;
31238;SDS011;17871;31.584;74.450;2023-04-03T17:05:23;153.93;;;68.70;;
31238;SDS011;17871;31.584;74.450;2023-04-03T17:07:52;141.23;;;69.07;;
31238;SDS011;17871;31.584;74.450;2023-04-03T17:10:21;127.50;;;62.85;;
31238;SDS011;17871;31.584;74.450;2023-04-03T17:12:49;171.43;;;77.68;;
31238;SDS011;17871;31.584;74.450;2023-04-03T17:15:18;177.75;;;78.43;;
31238;SDS011;17871;31.584;74.450;2023-04-03T17:17:48;114.95;;;59.70;;
31238;SDS011;17871;31.584;74.450;2023-04-03T17:20:19;105.43;;;52.28;;
31238;SDS011;17871;31.584;74.450;2023-04-03T17:22:48;129.25;;;64.38;;
31238;SDS011;17871;31.584;74.450;2023-04-03T17:25:17;125.65;;;60.78;;
31238;SDS011;17871;31.584;74.450;2023-04-03T17:27:46;153.32;;;69.97;;